Time,TemperatureF,DewpointF,PressureIn,WindDirection,WindDirectionDegrees,WindSpeedMPH,WindSpeedGustMPH,Humidity,HourlyPrecipIn,Conditions,Clouds,dailyrainin,SoftwareType,DateUTC
2013-02-20 00:04:00,-999.0,-99.9,29.57,North,-999,-999.0,-999.0,-999,0.00,,,0.00,weatherlink.com 1.10,2013-02-20 07:04:00,
2013-02-20 00:19:00,-999.0,-99.9,29.57,North,-999,-999.0,-999.0,-999,0.00,,,0.00,weatherlink.com 1.10,2013-02-20 07:19:00,
2013-02-20 00:34:00,-999.0,-99.9,29.57,North,-999,-999.0,-999.0,-999,0.00,,,0.00,weatherlink.com 1.10,2013-02-20 07:34:00,
2013-02-20 00:49:00,-999.0,-99.9,29.57,North,-999,-999.0,-999.0,-999,0.00,,,0.00,weatherlink.com 1.10,2013-02-20 07:49:00,
2013-02-20 01:19:00,-999.0,-99.9,29.57,North,-999,-999.0,-999.0,-999,0.00,,,0.00,weatherlink.com 1.10,2013-02-20 08:19:00,
2013-02-20 01:34:00,-999.0,-99.9,29.56,North,-999,-999.0,-999.0,-999,0.00,,,0.00,weatherlink.com 1.10,2013-02-20 08:34:00,
2013-02-20 01:49:00,-999.0,-99.9,29.56,North,-999,-999.0,-999.0,-999,0.00,,,0.00,weatherlink.com 1.10,2013-02-20 08:49:00,
2013-02-20 02:04:00,-999.0,-99.9,29.56,North,-999,-999.0,-999.0,-999,0.00,,,0.00,weatherlink.com 1.10,2013-02-20 09:04:00,
2013-02-20 02:19:00,-999.0,-99.9,29.55,North,-999,-999.0,-999.0,-999,0.00,,,0.00,weatherlink.com 1.10,2013-02-20 09:19:00,
2013-02-20 02:34:00,-999.0,-99.9,29.55,North,-999,-999.0,-999.0,-999,0.00,,,0.00,weatherlink.com 1.10,2013-02-20 09:34:00,
2013-02-20 02:49:00,-999.0,-99.9,29.54,North,-999,-999.0,-999.0,-999,0.00,,,0.00,weatherlink.com 1.10,2013-02-20 09:49:00,
2013-02-20 03:04:00,-999.0,-99.9,29.53,North,-999,-999.0,-999.0,-999,0.00,,,0.00,weatherlink.com 1.10,2013-02-20 10:04:00,
2013-02-20 03:20:00,-999.0,-99.9,29.52,North,-999,-999.0,-999.0,-999,0.00,,,0.00,weatherlink.com 1.10,2013-02-20 10:20:00,
2013-02-20 03:35:00,-999.0,-99.9,29.51,North,-999,-999.0,-999.0,-999,0.00,,,0.00,weatherlink.com 1.10,2013-02-20 10:35:00,
2013-02-20 03:50:00,-999.0,-99.9,29.50,North,-999,-999.0,-999.0,-999,0.00,,,0.00,weatherlink.com 1.10,2013-02-20 10:50:00,
2013-02-20 04:05:00,-999.0,-99.9,29.49,North,-999,-999.0,-999.0,-999,0.00,,,0.00,weatherlink.com 1.10,2013-02-20 11:05:00,
2013-02-20 04:20:00,-999.0,-99.9,29.47,North,-999,-999.0,-999.0,-999,0.00,,,0.00,weatherlink.com 1.10,2013-02-20 11:20:00,
2013-02-20 04:35:00,-999.0,-99.9,29.47,North,-999,-999.0,-999.0,-999,0.00,,,0.00,weatherlink.com 1.10,2013-02-20 11:35:00,
2013-02-20 04:50:00,-999.0,-99.9,29.46,North,-999,-999.0,-999.0,-999,0.00,,,0.00,weatherlink.com 1.10,2013-02-20 11:50:00,
2013-02-20 05:05:00,-999.0,-99.9,29.45,North,-999,-999.0,-999.0,-999,0.00,,,0.00,weatherlink.com 1.10,2013-02-20 12:05:00,
2013-02-20 05:20:00,-999.0,-99.9,29.45,North,-999,-999.0,-999.0,-999,0.00,,,0.00,weatherlink.com 1.10,2013-02-20 12:20:00,
2013-02-20 05:35:00,-999.0,-99.9,29.45,North,-999,-999.0,-999.0,-999,0.00,,,0.00,weatherlink.com 1.10,2013-02-20 12:35:00,
2013-02-20 05:50:00,-999.0,-99.9,29.45,North,-999,-999.0,-999.0,-999,0.00,,,0.00,weatherlink.com 1.10,2013-02-20 12:50:00,
2013-02-20 06:05:00,-999.0,-99.9,29.45,North,-999,-999.0,-999.0,-999,0.00,,,0.00,weatherlink.com 1.10,2013-02-20 13:05:00,
2013-02-20 06:20:00,-999.0,-99.9,29.45,North,-999,-999.0,-999.0,-999,0.00,,,0.00,weatherlink.com 1.10,2013-02-20 13:20:00,
2013-02-20 06:35:00,-999.0,-99.9,29.45,North,-999,-999.0,-999.0,-999,0.00,,,0.00,weatherlink.com 1.10,2013-02-20 13:35:00,
2013-02-20 06:51:00,-999.0,-99.9,29.46,North,-999,-999.0,-999.0,-999,0.00,,,0.00,weatherlink.com 1.10,2013-02-20 13:51:00,
2013-02-20 07:06:00,-999.0,-99.9,29.45,North,-999,-999.0,-999.0,-999,0.00,,,0.00,weatherlink.com 1.10,2013-02-20 14:06:00,
2013-02-20 07:21:00,-999.0,-99.9,29.45,North,-999,-999.0,-999.0,-999,0.00,,,0.00,weatherlink.com 1.10,2013-02-20 14:21:00,
2013-02-20 07:36:00,-999.0,-99.9,29.46,North,-999,-999.0,-999.0,-999,0.00,,,0.00,weatherlink.com 1.10,2013-02-20 14:36:00,
2013-02-20 07:51:00,-999.0,-99.9,29.47,North,-999,-999.0,-999.0,-999,0.00,,,0.00,weatherlink.com 1.10,2013-02-20 14:51:00,
2013-02-20 08:06:00,-999.0,-99.9,29.47,North,-999,-999.0,-999.0,-999,0.00,,,0.00,weatherlink.com 1.10,2013-02-20 15:06:00,
2013-02-20 08:21:00,-999.0,-99.9,29.47,North,-999,-999.0,-999.0,-999,0.00,,,0.00,weatherlink.com 1.10,2013-02-20 15:21:00,
2013-02-20 08:36:00,-999.0,-99.9,29.47,North,-999,-999.0,-999.0,-999,0.00,,,0.00,weatherlink.com 1.10,2013-02-20 15:36:00,
2013-02-20 08:51:00,-999.0,-99.9,29.47,North,-999,-999.0,-999.0,-999,0.00,,,0.00,weatherlink.com 1.10,2013-02-20 15:51:00,
2013-02-20 09:06:00,-999.0,-99.9,29.47,North,-999,-999.0,-999.0,-999,0.00,,,0.00,weatherlink.com 1.10,2013-02-20 16:06:00,
2013-02-20 09:21:00,31.8,28.0,29.47,SSE,165,1.0,5.0,86,0.00,,,0.00,weatherlink.com 1.10,2013-02-20 16:21:00,
2013-02-20 09:36:00,32.1,28.0,29.47,SSE,164,3.0,7.0,86,0.00,,,0.00,weatherlink.com 1.10,2013-02-20 16:36:00,
2013-02-20 09:51:00,32.0,29.0,29.47,South,190,2.0,6.0,87,0.00,,,0.00,weatherlink.com 1.10,2013-02-20 16:51:00,
2013-02-20 10:21:00,32.1,29.0,29.48,South,176,6.0,8.0,88,0.00,,,0.00,weatherlink.com 1.10,2013-02-20 17:21:00,
2013-02-20 10:36:00,31.5,29.0,29.49,South,173,5.0,14.0,89,0.01,,,0.01,weatherlink.com 1.10,2013-02-20 17:36:00,
2013-02-20 10:51:00,31.4,29.0,29.49,South,173,6.0,11.0,90,0.01,,,0.01,weatherlink.com 1.10,2013-02-20 17:51:00,
2013-02-20 11:06:00,31.4,29.0,29.50,SSE,165,3.0,10.0,90,0.02,,,0.02,weatherlink.com 1.10,2013-02-20 18:06:00,
2013-02-20 11:21:00,31.2,28.0,29.50,South,184,7.0,11.0,89,0.02,,,0.02,weatherlink.com 1.10,2013-02-20 18:21:00,
2013-02-20 11:37:00,31.1,28.0,29.52,South,178,4.0,12.0,89,0.01,,,0.02,weatherlink.com 1.10,2013-02-20 18:37:00,
2013-02-20 11:52:00,30.9,28.0,29.52,South,182,0.0,6.0,90,0.01,,,0.02,weatherlink.com 1.10,2013-02-20 18:52:00,
2013-02-20 12:07:00,31.1,28.0,29.52,SSE,150,2.0,4.0,88,0.01,,,0.03,weatherlink.com 1.10,2013-02-20 19:07:00,
2013-02-20 12:22:00,31.4,28.0,29.53,SSW,192,2.0,9.0,87,0.01,,,0.03,weatherlink.com 1.10,2013-02-20 19:22:00,
2013-02-20 12:37:00,30.8,28.0,29.54,South,180,7.0,8.0,89,0.01,,,0.03,weatherlink.com 1.10,2013-02-20 19:37:00,
2013-02-20 12:52:00,30.2,27.0,29.54,SSW,192,8.0,16.0,89,0.01,,,0.03,weatherlink.com 1.10,2013-02-20 19:52:00,
2013-02-20 13:07:00,29.3,27.0,29.55,SW,217,6.0,11.0,90,0.00,,,0.03,weatherlink.com 1.10,2013-02-20 20:07:00,
2013-02-20 13:22:00,28.7,26.0,29.55,SW,216,8.0,9.0,90,0.00,,,0.03,weatherlink.com 1.10,2013-02-20 20:22:00,
2013-02-20 13:37:00,28.9,27.0,29.56,SSW,206,6.0,7.0,91,0.00,,,0.03,weatherlink.com 1.10,2013-02-20 20:37:00,
2013-02-20 13:52:00,29.3,27.0,29.58,SW,219,2.0,11.0,90,0.00,,,0.03,weatherlink.com 1.10,2013-02-20 20:52:00,
2013-02-20 14:07:00,28.9,26.0,29.59,SSW,207,5.0,11.0,89,0.00,,,0.03,weatherlink.com 1.10,2013-02-20 21:07:00,
2013-02-20 14:22:00,29.4,26.0,29.60,SW,218,7.0,13.0,86,0.00,,,0.03,weatherlink.com 1.10,2013-02-20 21:22:00,
2013-02-20 14:37:00,30.3,26.0,29.61,SW,220,2.0,10.0,85,0.01,,,0.04,weatherlink.com 1.10,2013-02-20 21:37:00,
2013-02-20 14:52:00,30.4,26.0,29.62,SW,225,6.0,10.0,82,0.01,,,0.04,weatherlink.com 1.10,2013-02-20 21:52:00,
2013-02-20 15:07:00,30.6,26.0,29.63,SW,236,6.0,9.0,83,0.01,,,0.04,weatherlink.com 1.10,2013-02-20 22:07:00,
2013-02-20 15:22:00,31.8,27.0,29.65,SW,218,5.0,11.0,82,0.02,,,0.05,weatherlink.com 1.10,2013-02-20 22:22:00,
2013-02-20 15:37:00,32.7,28.0,29.65,SSW,213,6.0,9.0,82,0.01,,,0.05,weatherlink.com 1.10,2013-02-20 22:37:00,
2013-02-20 15:52:00,32.3,25.0,29.66,WSW,250,6.0,14.0,73,0.01,,,0.05,weatherlink.com 1.10,2013-02-20 22:52:00,
2013-02-20 16:07:00,31.9,25.0,29.67,SW,219,4.0,11.0,74,0.01,,,0.05,weatherlink.com 1.10,2013-02-20 23:07:00,
2013-02-20 16:22:00,31.9,25.0,29.68,SW,221,4.0,7.0,74,0.00,,,0.05,weatherlink.com 1.10,2013-02-20 23:22:00,
2013-02-20 16:37:00,31.5,24.0,29.69,SW,216,7.0,8.0,73,0.00,,,0.05,weatherlink.com 1.10,2013-02-20 23:37:00,
2013-02-20 16:52:00,31.2,23.0,29.71,SW,214,1.0,6.0,73,0.00,,,0.05,weatherlink.com 1.10,2013-02-20 23:52:00,
2013-02-20 17:07:00,31.0,24.0,29.72,SSW,213,2.0,4.0,75,0.00,,,0.05,weatherlink.com 1.10,2013-02-21 00:07:00,
2013-02-20 17:22:00,30.8,25.0,29.73,WSW,244,2.0,6.0,78,0.00,,,0.05,weatherlink.com 1.10,2013-02-21 00:22:00,
2013-02-20 17:37:00,30.6,25.0,29.74,SW,229,2.0,4.0,79,0.00,,,0.05,weatherlink.com 1.10,2013-02-21 00:37:00,
2013-02-20 17:52:00,29.9,24.0,29.75,WSW,250,2.0,8.0,80,0.00,,,0.05,weatherlink.com 1.10,2013-02-21 00:52:00,
2013-02-20 18:08:00,29.3,24.0,29.77,WSW,245,3.0,6.0,81,0.00,,,0.05,weatherlink.com 1.10,2013-02-21 01:08:00,
2013-02-20 18:23:00,28.8,24.0,29.77,WSW,246,3.0,6.0,82,0.00,,,0.05,weatherlink.com 1.10,2013-02-21 01:23:00,
2013-02-20 18:38:00,28.5,24.0,29.79,SW,230,2.0,5.0,82,0.00,,,0.05,weatherlink.com 1.10,2013-02-21 01:38:00,
2013-02-20 18:53:00,28.3,24.0,29.80,SW,234,2.0,3.0,84,0.00,,,0.05,weatherlink.com 1.10,2013-02-21 01:53:00,
2013-02-20 19:08:00,28.3,24.0,29.82,WSW,238,4.0,6.0,85,0.00,,,0.05,weatherlink.com 1.10,2013-02-21 02:08:00,
2013-02-20 19:23:00,28.2,24.0,29.82,SW,225,2.0,3.0,85,0.00,,,0.05,weatherlink.com 1.10,2013-02-21 02:23:00,
2013-02-20 19:38:00,28.2,25.0,29.83,SW,222,3.0,4.0,86,0.00,,,0.05,weatherlink.com 1.10,2013-02-21 02:38:00,
2013-02-20 19:53:00,28.2,25.0,29.84,SW,214,1.0,5.0,86,0.00,,,0.05,weatherlink.com 1.10,2013-02-21 02:53:00,
2013-02-20 20:08:00,28.2,25.0,29.85,SSW,199,2.0,5.0,87,0.00,,,0.05,weatherlink.com 1.10,2013-02-21 03:08:00,
2013-02-20 20:23:00,28.2,25.0,29.85,South,176,3.0,6.0,86,0.00,,,0.05,weatherlink.com 1.10,2013-02-21 03:23:00,
2013-02-20 20:38:00,28.3,25.0,29.85,South,190,2.0,7.0,86,0.00,,,0.05,weatherlink.com 1.10,2013-02-21 03:38:00,
2013-02-20 20:53:00,28.4,25.0,29.86,SSW,202,1.0,5.0,86,0.00,,,0.05,weatherlink.com 1.10,2013-02-21 03:53:00,
2013-02-20 21:08:00,28.2,25.0,29.87,SSW,201,6.0,7.0,86,0.00,,,0.05,weatherlink.com 1.10,2013-02-21 04:08:00,
2013-02-20 21:23:00,27.9,24.0,29.88,SSW,205,4.0,7.0,86,0.00,,,0.05,weatherlink.com 1.10,2013-02-21 04:23:00,
2013-02-20 21:38:00,27.7,24.0,29.89,SSW,197,6.0,12.0,87,0.00,,,0.05,weatherlink.com 1.10,2013-02-21 04:38:00,
2013-02-20 21:53:00,27.6,24.0,29.90,South,184,4.0,9.0,86,0.00,,,0.05,weatherlink.com 1.10,2013-02-21 04:53:00,
2013-02-20 22:08:00,27.4,24.0,29.90,SW,225,2.0,6.0,87,0.00,,,0.05,weatherlink.com 1.10,2013-02-21 05:08:00,
2013-02-20 22:23:00,27.1,24.0,29.91,South,186,6.0,8.0,87,0.00,,,0.05,weatherlink.com 1.10,2013-02-21 05:23:00,
2013-02-20 22:38:00,27.1,24.0,29.91,SSW,195,7.0,7.0,87,0.00,,,0.05,weatherlink.com 1.10,2013-02-21 05:38:00,
2013-02-20 22:53:00,27.4,24.0,29.91,SSW,196,3.0,9.0,88,0.00,,,0.05,weatherlink.com 1.10,2013-02-21 05:53:00,
2013-02-20 23:08:00,27.7,24.0,29.91,SSW,202,6.0,11.0,87,0.00,,,0.05,weatherlink.com 1.10,2013-02-21 06:08:00,
2013-02-20 23:23:00,27.8,24.0,29.92,South,190,4.0,11.0,87,0.00,,,0.05,weatherlink.com 1.10,2013-02-21 06:23:00,
2013-02-20 23:38:00,28.3,24.0,29.92,South,179,6.0,9.0,85,0.00,,,0.05,weatherlink.com 1.10,2013-02-21 06:38:00,
2013-02-20 23:53:00,28.6,24.0,29.93,South,182,2.0,6.0,84,0.00,,,0.05,weatherlink.com 1.10,2013-02-21 06:53:00,